sensor_id;sensor_type;location;lat;lon;timestamp;P1;durP1;ratioP1;P2;durP2;ratioP2
11113;SDS011;5610;52.154;9.198;2023-06-26T00:02:08;10.53;;;9.70;;
11113;SDS011;5610;52.154;9.198;2023-06-26T00:04:55;10.67;;;9.83;;
11113;SDS011;5610;52.154;9.198;2023-06-26T00:07:40;11.20;;;10.30;;
11113;SDS011;5610;52.154;9.198;2023-06-26T00:10:26;14.80;;;10.27;;
11113;SDS011;5610;52.154;9.198;2023-06-26T00:13:11;10.70;;;9.87;;
11113;SDS011;5610;52.154;9.198;2023-06-26T00:15:56;11.03;;;10.13;;
11113;SDS011;5610;52.154;9.198;2023-06-26T00:18:44;11.33;;;10.37;;
11113;SDS011;5610;52.154;9.198;2023-06-26T00:21:30;11.03;;;10.10;;
11113;SDS011;5610;52.154;9.198;2023-06-26T00:24:16;10.93;;;10.03;;
11113;SDS011;5610;52.154;9.198;2023-06-26T00:27:01;11.47;;;10.57;;
11113;SDS011;5610;52.154;9.198;2023-06-26T00:29:46;11.97;;;10.77;;
11113;SDS011;5610;52.154;9.198;2023-06-26T00:32:31;11.87;;;10.67;;
11113;SDS011;5610;52.154;9.198;2023-06-26T00:35:19;11.77;;;10.87;;
11113;SDS011;5610;52.154;9.198;2023-06-26T00:38:06;10.50;;;9.60;;
11113;SDS011;5610;52.154;9.198;2023-06-26T00:40:51;10.90;;;10.00;;
11113;SDS011;5610;52.154;9.198;2023-06-26T00:43:38;11.23;;;10.23;;
11113;SDS011;5610;52.154;9.198;2023-06-26T00:46:27;11.37;;;10.37;;
11113;SDS011;5610;52.154;9.198;2023-06-26T00:49:12;11.83;;;10.90;;
11113;SDS011;5610;52.154;9.198;2023-06-26T00:51:58;11.87;;;10.87;;
11113;SDS011;5610;52.154;9.198;2023-06-26T00:54:45;11.83;;;10.83;;
11113;SDS011;5610;52.154;9.198;2023-06-26T00:57:31;11.73;;;10.63;;
11113;SDS011;5610;52.154;9.198;2023-06-26T01:00:17;13.10;;;11.73;;
11113;SDS011;5610;52.154;9.198;2023-06-26T01:03:03;11.87;;;10.83;;
11113;SDS011;5610;52.154;9.198;2023-06-26T01:05:48;12.20;;;11.03;;
11113;SDS011;5610;52.154;9.198;2023-06-26T01:08:35;12.33;;;11.23;;
11113;SDS011;5610;52.154;9.198;2023-06-26T01:11:22;11.70;;;10.60;;
11113;SDS011;5610;52.154;9.198;2023-06-26T01:14:07;12.23;;;11.03;;
11113;SDS011;5610;52.154;9.198;2023-06-26T01:16:52;12.03;;;10.83;;
11113;SDS011;5610;52.154;9.198;2023-06-26T01:19:41;11.83;;;10.63;;
11113;SDS011;5610;52.154;9.198;2023-06-26T01:22:31;12.03;;;10.93;;
11113;SDS011;5610;52.154;9.198;2023-06-26T01:25:29;12.30;;;11.00;;
11113;SDS011;5610;52.154;9.198;2023-06-26T01:28:23;11.80;;;10.70;;
11113;SDS011;5610;52.154;9.198;2023-06-26T01:31:10;11.80;;;9.97;;
11113;SDS011;5610;52.154;9.198;2023-06-26T01:33:56;11.50;;;10.50;;
11113;SDS011;5610;52.154;9.198;2023-06-26T01:36:43;12.23;;;11.13;;
11113;SDS011;5610;52.154;9.198;2023-06-26T01:39:29;12.20;;;11.03;;
11113;SDS011;5610;52.154;9.198;2023-06-26T01:42:14;16.10;;;11.03;;
11113;SDS011;5610;52.154;9.198;2023-06-26T01:45:02;12.40;;;11.40;;
11113;SDS011;5610;52.154;9.198;2023-06-26T01:47:53;12.10;;;10.90;;
11113;SDS011;5610;52.154;9.198;2023-06-26T01:50:42;14.53;;;10.60;;
11113;SDS011;5610;52.154;9.198;2023-06-26T01:53:31;10.77;;;9.87;;
11113;SDS011;5610;52.154;9.198;2023-06-26T01:56:21;11.20;;;10.20;;
11113;SDS011;5610;52.154;9.198;2023-06-26T01:59:09;12.27;;;11.17;;
11113;SDS011;5610;52.154;9.198;2023-06-26T02:01:58;11.83;;;10.67;;
11113;SDS011;5610;52.154;9.198;2023-06-26T02:04:45;14.57;;;10.70;;
11113;SDS011;5610;52.154;9.198;2023-06-26T02:07:32;12.07;;;10.83;;
11113;SDS011;5610;52.154;9.198;2023-06-26T02:10:20;13.60;;;10.70;;
11113;SDS011;5610;52.154;9.198;2023-06-26T02:13:05;11.90;;;10.73;;
11113;SDS011;5610;52.154;9.198;2023-06-26T02:15:50;12.50;;;11.37;;
11113;SDS011;5610;52.154;9.198;2023-06-26T02:18:36;11.80;;;10.57;;
11113;SDS011;5610;52.154;9.198;2023-06-26T02:21:22;11.00;;;9.90;;
11113;SDS011;5610;52.154;9.198;2023-06-26T02:24:07;12.20;;;11.00;;
11113;SDS011;5610;52.154;9.198;2023-06-26T02:26:53;11.87;;;10.87;;
11113;SDS011;5610;52.154;9.198;2023-06-26T02:29:38;13.73;;;10.90;;
11113;SDS011;5610;52.154;9.198;2023-06-26T02:32:25;11.70;;;10.80;;
11113;SDS011;5610;52.154;9.198;2023-06-26T02:35:12;12.50;;;10.80;;
11113;SDS011;5610;52.154;9.198;2023-06-26T02:37:59;11.57;;;10.57;;
11113;SDS011;5610;52.154;9.198;2023-06-26T02:40:45;12.07;;;10.90;;
11113;SDS011;5610;52.154;9.198;2023-06-26T02:43:31;11.87;;;10.67;;
11113;SDS011;5610;52.154;9.198;2023-06-26T02:46:17;12.13;;;10.60;;
11113;SDS011;5610;52.154;9.198;2023-06-26T02:49:03;13.93;;;11.00;;
11113;SDS011;5610;52.154;9.198;2023-06-26T02:51:50;11.13;;;10.03;;
11113;SDS011;5610;52.154;9.198;2023-06-26T02:54:42;15.73;;;10.77;;
11113;SDS011;5610;52.154;9.198;2023-06-26T02:57:27;11.10;;;10.00;;
11113;SDS011;5610;52.154;9.198;2023-06-26T03:00:14;12.10;;;11.00;;
11113;SDS011;5610;52.154;9.198;2023-06-26T03:03:05;15.13;;;11.43;;
11113;SDS011;5610;52.154;9.198;2023-06-26T03:05:51;11.60;;;10.50;;
11113;SDS011;5610;52.154;9.198;2023-06-26T03:08:38;11.00;;;9.97;;
11113;SDS011;5610;52.154;9.198;2023-06-26T03:11:24;11.90;;;10.90;;
11113;SDS011;5610;52.154;9.198;2023-06-26T03:14:09;11.20;;;10.10;;
11113;SDS011;5610;52.154;9.198;2023-06-26T03:16:55;11.67;;;10.47;;
11113;SDS011;5610;52.154;9.198;2023-06-26T03:19:43;11.27;;;10.27;;
11113;SDS011;5610;52.154;9.198;2023-06-26T03:22:36;13.97;;;9.70;;
11113;SDS011;5610;52.154;9.198;2023-06-26T03:25:23;11.10;;;10.00;;
11113;SDS011;5610;52.154;9.198;2023-06-26T03:28:16;10.17;;;9.17;;
11113;SDS011;5610;52.154;9.198;2023-06-26T03:31:02;10.93;;;9.93;;
11113;SDS011;5610;52.154;9.198;2023-06-26T03:33:48;10.80;;;9.87;;
11113;SDS011;5610;52.154;9.198;2023-06-26T03:36:33;9.50;;;8.70;;
11113;SDS011;5610;52.154;9.198;2023-06-26T03:39:20;11.13;;;10.13;;
11113;SDS011;5610;52.154;9.198;2023-06-26T03:42:08;10.90;;;9.90;;
11113;SDS011;5610;52.154;9.198;2023-06-26T03:44:53;11.03;;;9.90;;
11113;SDS011;5610;52.154;9.198;2023-06-26T03:47:38;10.47;;;9.57;;
11113;SDS011;5610;52.154;9.198;2023-06-26T03:50:23;10.00;;;9.07;;
11113;SDS011;5610;52.154;9.198;2023-06-26T03:53:08;10.03;;;9.20;;
11113;SDS011;5610;52.154;9.198;2023-06-26T03:55:54;10.00;;;9.20;;
11113;SDS011;5610;52.154;9.198;2023-06-26T03:58:42;12.03;;;9.00;;
11113;SDS011;5610;52.154;9.198;2023-06-26T04:01:28;11.53;;;9.33;;
11113;SDS011;5610;52.154;9.198;2023-06-26T04:04:13;10.73;;;9.83;;
11113;SDS011;5610;52.154;9.198;2023-06-26T04:06:59;11.33;;;10.27;;
11113;SDS011;5610;52.154;9.198;2023-06-26T04:09:44;10.33;;;9.43;;
11113;SDS011;5610;52.154;9.198;2023-06-26T04:12:29;10.13;;;9.23;;
11113;SDS011;5610;52.154;9.198;2023-06-26T04:15:16;11.10;;;8.60;;
11113;SDS011;5610;52.154;9.198;2023-06-26T04:18:01;10.10;;;9.20;;
11113;SDS011;5610;52.154;9.198;2023-06-26T04:23:50;9.90;;;8.10;;
11113;SDS011;5610;52.154;9.198;2023-06-26T04:26:36;9.80;;;9.03;;
11113;SDS011;5610;52.154;9.198;2023-06-26T04:29:21;12.63;;;10.03;;
11113;SDS011;5610;52.154;9.198;2023-06-26T04:32:10;10.80;;;9.70;;
11113;SDS011;5610;52.154;9.198;2023-06-26T04:34:56;10.00;;;9.00;;
11113;SDS011;5610;52.154;9.198;2023-06-26T04:37:41;10.33;;;9.47;;
11113;SDS011;5610;52.154;9.198;2023-06-26T04:40:26;10.00;;;8.97;;
11113;SDS011;5610;52.154;9.198;2023-06-26T04:43:12;11.70;;;10.60;;
11113;SDS011;5610;52.154;9.198;2023-06-26T04:45:59;10.17;;;9.17;;
11113;SDS011;5610;52.154;9.198;2023-06-26T04:48:46;9.73;;;8.83;;
11113;SDS011;5610;52.154;9.198;2023-06-26T04:51:31;9.40;;;8.50;;
11113;SDS011;5610;52.154;9.198;2023-06-26T04:54:16;9.50;;;8.60;;
11113;SDS011;5610;52.154;9.198;2023-06-26T04:57:01;9.47;;;8.67;;
11113;SDS011;5610;52.154;9.198;2023-06-26T04:59:46;10.43;;;9.43;;
11113;SDS011;5610;52.154;9.198;2023-06-26T05:02:31;9.80;;;8.80;;
11113;SDS011;5610;52.154;9.198;2023-06-26T05:05:18;10.23;;;9.23;;
11113;SDS011;5610;52.154;9.198;2023-06-26T05:08:13;10.03;;;8.77;;
11113;SDS011;5610;52.154;9.198;2023-06-26T05:10:59;10.10;;;9.20;;
11113;SDS011;5610;52.154;9.198;2023-06-26T05:13:44;11.13;;;8.80;;
11113;SDS011;5610;52.154;9.198;2023-06-26T05:16:29;10.60;;;9.50;;
11113;SDS011;5610;52.154;9.198;2023-06-26T05:19:15;10.43;;;9.53;;
11113;SDS011;5610;52.154;9.198;2023-06-26T05:22:02;11.13;;;10.10;;
11113;SDS011;5610;52.154;9.198;2023-06-26T05:24:50;10.70;;;9.60;;
11113;SDS011;5610;52.154;9.198;2023-06-26T05:27:39;10.30;;;9.40;;
11113;SDS011;5610;52.154;9.198;2023-06-26T05:30:26;10.60;;;8.60;;
11113;SDS011;5610;52.154;9.198;2023-06-26T05:33:12;9.33;;;8.53;;
11113;SDS011;5610;52.154;9.198;2023-06-26T05:36:00;9.43;;;8.60;;
11113;SDS011;5610;52.154;9.198;2023-06-26T05:38:49;9.00;;;8.20;;
11113;SDS011;5610;52.154;9.198;2023-06-26T05:41:35;10.17;;;9.20;;
11113;SDS011;5610;52.154;9.198;2023-06-26T05:44:21;10.20;;;9.20;;
11113;SDS011;5610;52.154;9.198;2023-06-26T05:47:06;10.03;;;9.17;;
11113;SDS011;5610;52.154;9.198;2023-06-26T05:49:51;10.13;;;9.30;;
11113;SDS011;5610;52.154;9.198;2023-06-26T05:52:37;10.60;;;9.10;;
11113;SDS011;5610;52.154;9.198;2023-06-26T05:55:25;9.57;;;8.67;;
11113;SDS011;5610;52.154;9.198;2023-06-26T05:58:11;11.97;;;8.50;;
11113;SDS011;5610;52.154;9.198;2023-06-26T06:00:56;9.50;;;8.80;;
11113;SDS011;5610;52.154;9.198;2023-06-26T06:03:41;9.53;;;8.77;;
11113;SDS011;5610;52.154;9.198;2023-06-26T06:06:26;10.83;;;8.27;;
11113;SDS011;5610;52.154;9.198;2023-06-26T06:09:11;9.07;;;8.27;;
11113;SDS011;5610;52.154;9.198;2023-06-26T06:11:58;9.20;;;8.40;;
11113;SDS011;5610;52.154;9.198;2023-06-26T06:14:43;9.77;;;8.77;;
11113;SDS011;5610;52.154;9.198;2023-06-26T06:17:28;9.30;;;8.50;;
11113;SDS011;5610;52.154;9.198;2023-06-26T06:20:13;9.13;;;8.07;;
11113;SDS011;5610;52.154;9.198;2023-06-26T06:22:58;9.13;;;8.20;;
11113;SDS011;5610;52.154;9.198;2023-06-26T06:25:43;8.47;;;7.77;;
11113;SDS011;5610;52.154;9.198;2023-06-26T06:28:30;8.07;;;7.47;;
11113;SDS011;5610;52.154;9.198;2023-06-26T06:31:15;10.03;;;9.03;;
11113;SDS011;5610;52.154;9.198;2023-06-26T06:34:01;8.40;;;7.60;;
11113;SDS011;5610;52.154;9.198;2023-06-26T06:36:46;9.07;;;8.23;;
11113;SDS011;5610;52.154;9.198;2023-06-26T06:39:31;9.23;;;8.20;;
11113;SDS011;5610;52.154;9.198;2023-06-26T06:42:16;9.87;;;8.33;;
11113;SDS011;5610;52.154;9.198;2023-06-26T06:45:03;9.17;;;8.27;;
11113;SDS011;5610;52.154;9.198;2023-06-26T06:47:49;9.20;;;8.30;;
11113;SDS011;5610;52.154;9.198;2023-06-26T06:50:35;8.70;;;7.90;;
11113;SDS011;5610;52.154;9.198;2023-06-26T06:53:20;9.53;;;7.77;;
11113;SDS011;5610;52.154;9.198;2023-06-26T06:56:06;8.90;;;8.00;;
11113;SDS011;5610;52.154;9.198;2023-06-26T06:58:51;9.97;;;9.00;;
11113;SDS011;5610;52.154;9.198;2023-06-26T07:01:38;9.27;;;8.47;;
11113;SDS011;5610;52.154;9.198;2023-06-26T07:04:25;8.63;;;7.80;;
11113;SDS011;5610;52.154;9.198;2023-06-26T07:07:11;8.53;;;7.80;;
11113;SDS011;5610;52.154;9.198;2023-06-26T07:09:58;8.43;;;7.73;;
11113;SDS011;5610;52.154;9.198;2023-06-26T07:12:43;9.07;;;8.27;;
11113;SDS011;5610;52.154;9.198;2023-06-26T07:15:28;9.33;;;8.53;;
11113;SDS011;5610;52.154;9.198;2023-06-26T07:18:16;12.93;;;9.27;;
11113;SDS011;5610;52.154;9.198;2023-06-26T07:21:01;9.43;;;8.57;;
11113;SDS011;5610;52.154;9.198;2023-06-26T07:23:46;11.43;;;9.03;;
11113;SDS011;5610;52.154;9.198;2023-06-26T07:26:32;10.70;;;8.60;;
11113;SDS011;5610;52.154;9.198;2023-06-26T07:29:17;8.50;;;7.90;;
11113;SDS011;5610;52.154;9.198;2023-06-26T07:32:02;8.90;;;7.97;;
11113;SDS011;5610;52.154;9.198;2023-06-26T07:34:49;8.87;;;8.07;;
11113;SDS011;5610;52.154;9.198;2023-06-26T07:37:34;9.70;;;8.80;;
11113;SDS011;5610;52.154;9.198;2023-06-26T07:40:19;9.10;;;8.27;;
11113;SDS011;5610;52.154;9.198;2023-06-26T07:43:05;9.87;;;8.97;;
11113;SDS011;5610;52.154;9.198;2023-06-26T07:45:50;8.90;;;8.13;;
11113;SDS011;5610;52.154;9.198;2023-06-26T07:48:37;9.33;;;8.47;;
11113;SDS011;5610;52.154;9.198;2023-06-26T07:51:23;9.27;;;8.37;;
11113;SDS011;5610;52.154;9.198;2023-06-26T07:54:09;9.20;;;8.30;;
11113;SDS011;5610;52.154;9.198;2023-06-26T07:56:55;8.60;;;8.00;;
11113;SDS011;5610;52.154;9.198;2023-06-26T07:59:41;9.50;;;8.80;;
11113;SDS011;5610;52.154;9.198;2023-06-26T08:02:25;11.97;;;9.00;;
11113;SDS011;5610;52.154;9.198;2023-06-26T08:05:11;10.13;;;9.13;;
11113;SDS011;5610;52.154;9.198;2023-06-26T08:07:58;9.17;;;8.30;;
11113;SDS011;5610;52.154;9.198;2023-06-26T08:10:45;13.00;;;9.33;;
11113;SDS011;5610;52.154;9.198;2023-06-26T08:13:30;9.83;;;8.97;;
11113;SDS011;5610;52.154;9.198;2023-06-26T08:16:15;10.63;;;9.53;;
11113;SDS011;5610;52.154;9.198;2023-06-26T08:19:01;9.97;;;8.57;;
11113;SDS011;5610;52.154;9.198;2023-06-26T08:21:46;9.87;;;9.00;;
11113;SDS011;5610;52.154;9.198;2023-06-26T08:24:33;10.17;;;9.30;;
11113;SDS011;5610;52.154;9.198;2023-06-26T08:27:18;11.77;;;9.73;;
11113;SDS011;5610;52.154;9.198;2023-06-26T08:30:04;11.03;;;9.47;;
11113;SDS011;5610;52.154;9.198;2023-06-26T08:32:50;10.17;;;9.30;;
11113;SDS011;5610;52.154;9.198;2023-06-26T08:35:35;11.50;;;9.90;;
11113;SDS011;5610;52.154;9.198;2023-06-26T08:38:20;9.47;;;8.57;;
11113;SDS011;5610;52.154;9.198;2023-06-26T08:41:07;9.67;;;8.73;;
11113;SDS011;5610;52.154;9.198;2023-06-26T08:43:52;9.90;;;9.10;;
11113;SDS011;5610;52.154;9.198;2023-06-26T08:46:37;10.63;;;8.73;;
11113;SDS011;5610;52.154;9.198;2023-06-26T08:49:25;11.00;;;9.73;;
11113;SDS011;5610;52.154;9.198;2023-06-26T08:52:19;11.30;;;10.30;;
11113;SDS011;5610;52.154;9.198;2023-06-26T08:55:09;10.63;;;8.90;;
11113;SDS011;5610;52.154;9.198;2023-06-26T08:57:56;9.30;;;8.50;;
11113;SDS011;5610;52.154;9.198;2023-06-26T09:00:42;8.30;;;7.60;;
11113;SDS011;5610;52.154;9.198;2023-06-26T09:03:28;10.60;;;8.70;;
11113;SDS011;5610;52.154;9.198;2023-06-26T09:06:14;11.47;;;8.90;;
11113;SDS011;5610;52.154;9.198;2023-06-26T09:08:59;10.20;;;9.20;;
11113;SDS011;5610;52.154;9.198;2023-06-26T09:11:44;11.20;;;8.70;;
11113;SDS011;5610;52.154;9.198;2023-06-26T09:14:31;10.90;;;9.80;;
11113;SDS011;5610;52.154;9.198;2023-06-26T09:17:16;10.30;;;9.30;;
11113;SDS011;5610;52.154;9.198;2023-06-26T09:20:01;11.40;;;10.37;;
11113;SDS011;5610;52.154;9.198;2023-06-26T09:22:47;11.53;;;10.37;;
11113;SDS011;5610;52.154;9.198;2023-06-26T09:25:33;11.53;;;10.30;;
11113;SDS011;5610;52.154;9.198;2023-06-26T09:28:18;11.63;;;10.53;;
11113;SDS011;5610;52.154;9.198;2023-06-26T09:31:06;12.90;;;11.10;;
11113;SDS011;5610;52.154;9.198;2023-06-26T09:33:55;13.93;;;10.63;;
11113;SDS011;5610;52.154;9.198;2023-06-26T09:36:42;11.80;;;10.70;;
11113;SDS011;5610;52.154;9.198;2023-06-26T09:39:30;13.80;;;12.40;;
11113;SDS011;5610;52.154;9.198;2023-06-26T09:42:16;11.97;;;10.53;;
11113;SDS011;5610;52.154;9.198;2023-06-26T09:45:02;12.80;;;11.60;;
11113;SDS011;5610;52.154;9.198;2023-06-26T09:47:48;13.70;;;12.37;;
11113;SDS011;5610;52.154;9.198;2023-06-26T09:50:34;13.20;;;12.00;;
11113;SDS011;5610;52.154;9.198;2023-06-26T09:53:21;14.30;;;13.00;;
11113;SDS011;5610;52.154;9.198;2023-06-26T09:56:07;13.40;;;12.00;;
11113;SDS011;5610;52.154;9.198;2023-06-26T09:59:00;13.20;;;11.33;;
11113;SDS011;5610;52.154;9.198;2023-06-26T10:01:47;13.30;;;11.90;;
11113;SDS011;5610;52.154;9.198;2023-06-26T10:04:34;12.90;;;11.60;;
11113;SDS011;5610;52.154;9.198;2023-06-26T10:07:20;13.33;;;11.73;;
11113;SDS011;5610;52.154;9.198;2023-06-26T10:10:07;13.07;;;11.97;;
11113;SDS011;5610;52.154;9.198;2023-06-26T10:12:57;12.23;;;11.10;;
11113;SDS011;5610;52.154;9.198;2023-06-26T10:15:45;9.50;;;8.57;;
11113;SDS011;5610;52.154;9.198;2023-06-26T10:18:31;9.63;;;8.70;;
11113;SDS011;5610;52.154;9.198;2023-06-26T10:21:21;9.53;;;8.53;;
11113;SDS011;5610;52.154;9.198;2023-06-26T10:24:07;11.77;;;7.73;;
11113;SDS011;5610;52.154;9.198;2023-06-26T10:27:02;10.13;;;8.87;;
11113;SDS011;5610;52.154;9.198;2023-06-26T10:29:50;10.47;;;9.27;;
11113;SDS011;5610;52.154;9.198;2023-06-26T10:32:38;10.57;;;8.73;;
11113;SDS011;5610;52.154;9.198;2023-06-26T10:35:25;8.80;;;7.63;;
11113;SDS011;5610;52.154;9.198;2023-06-26T10:38:12;8.67;;;7.23;;
11113;SDS011;5610;52.154;9.198;2023-06-26T10:40:58;11.00;;;7.70;;
11113;SDS011;5610;52.154;9.198;2023-06-26T10:44:08;8.10;;;7.30;;
11113;SDS011;5610;52.154;9.198;2023-06-26T10:46:55;7.77;;;6.97;;
11113;SDS011;5610;52.154;9.198;2023-06-26T10:49:42;8.57;;;7.70;;
11113;SDS011;5610;52.154;9.198;2023-06-26T10:52:35;9.23;;;6.53;;
11113;SDS011;5610;52.154;9.198;2023-06-26T10:55:28;9.03;;;7.20;;
11113;SDS011;5610;52.154;9.198;2023-06-26T10:58:29;7.60;;;6.90;;
11113;SDS011;5610;52.154;9.198;2023-06-26T11:01:22;11.10;;;7.10;;
11113;SDS011;5610;52.154;9.198;2023-06-26T11:04:08;7.70;;;6.40;;
11113;SDS011;5610;52.154;9.198;2023-06-26T11:06:55;11.23;;;7.50;;
11113;SDS011;5610;52.154;9.198;2023-06-26T11:10:00;8.00;;;7.20;;
11113;SDS011;5610;52.154;9.198;2023-06-26T11:12:48;7.70;;;6.60;;
11113;SDS011;5610;52.154;9.198;2023-06-26T11:15:34;7.63;;;6.93;;
11113;SDS011;5610;52.154;9.198;2023-06-26T11:18:20;8.20;;;7.33;;
11113;SDS011;5610;52.154;9.198;2023-06-26T11:21:06;8.60;;;7.33;;
11113;SDS011;5610;52.154;9.198;2023-06-26T11:23:51;7.67;;;6.97;;
11113;SDS011;5610;52.154;9.198;2023-06-26T11:26:42;11.33;;;7.77;;
11113;SDS011;5610;52.154;9.198;2023-06-26T11:29:29;10.27;;;7.20;;
11113;SDS011;5610;52.154;9.198;2023-06-26T11:32:15;7.70;;;6.90;;
11113;SDS011;5610;52.154;9.198;2023-06-26T11:35:00;8.93;;;6.73;;
11113;SDS011;5610;52.154;9.198;2023-06-26T11:37:45;8.37;;;6.80;;
11113;SDS011;5610;52.154;9.198;2023-06-26T11:40:31;7.53;;;6.07;;
11113;SDS011;5610;52.154;9.198;2023-06-26T11:43:17;10.07;;;6.40;;
11113;SDS011;5610;52.154;9.198;2023-06-26T11:46:06;9.80;;;5.47;;
11113;SDS011;5610;52.154;9.198;2023-06-26T11:48:51;6.43;;;5.13;;
11113;SDS011;5610;52.154;9.198;2023-06-26T11:51:36;5.43;;;5.03;;
11113;SDS011;5610;52.154;9.198;2023-06-26T11:54:24;6.40;;;4.60;;
11113;SDS011;5610;52.154;9.198;2023-06-26T11:57:13;5.20;;;4.70;;
11113;SDS011;5610;52.154;9.198;2023-06-26T12:00:09;4.33;;;3.57;;
11113;SDS011;5610;52.154;9.198;2023-06-26T12:02:57;4.90;;;4.40;;
11113;SDS011;5610;52.154;9.198;2023-06-26T12:05:42;5.63;;;3.90;;
11113;SDS011;5610;52.154;9.198;2023-06-26T12:08:29;5.43;;;4.07;;
11113;SDS011;5610;52.154;9.198;2023-06-26T12:11:14;6.37;;;4.17;;
11113;SDS011;5610;52.154;9.198;2023-06-26T12:14:00;8.30;;;4.07;;
11113;SDS011;5610;52.154;9.198;2023-06-26T12:16:46;5.17;;;3.63;;
11113;SDS011;5610;52.154;9.198;2023-06-26T12:19:33;7.03;;;3.93;;
11113;SDS011;5610;52.154;9.198;2023-06-26T12:22:21;4.40;;;3.70;;
11113;SDS011;5610;52.154;9.198;2023-06-26T12:25:07;5.63;;;4.00;;
11113;SDS011;5610;52.154;9.198;2023-06-26T12:27:52;5.37;;;4.13;;
11113;SDS011;5610;52.154;9.198;2023-06-26T12:30:37;4.07;;;3.67;;
11113;SDS011;5610;52.154;9.198;2023-06-26T12:33:24;6.60;;;4.37;;
11113;SDS011;5610;52.154;9.198;2023-06-26T12:36:11;4.30;;;3.80;;
11113;SDS011;5610;52.154;9.198;2023-06-26T12:39:00;3.70;;;3.40;;
11113;SDS011;5610;52.154;9.198;2023-06-26T12:41:46;4.70;;;2.77;;
11113;SDS011;5610;52.154;9.198;2023-06-26T12:44:32;7.87;;;3.80;;
11113;SDS011;5610;52.154;9.198;2023-06-26T12:47:18;5.63;;;3.43;;
11113;SDS011;5610;52.154;9.198;2023-06-26T12:50:08;4.73;;;3.00;;
11113;SDS011;5610;52.154;9.198;2023-06-26T12:52:55;5.40;;;2.87;;
11113;SDS011;5610;52.154;9.198;2023-06-26T12:55:40;4.47;;;3.20;;
11113;SDS011;5610;52.154;9.198;2023-06-26T12:58:26;4.50;;;2.73;;
11113;SDS011;5610;52.154;9.198;2023-06-26T13:01:11;5.17;;;3.20;;
11113;SDS011;5610;52.154;9.198;2023-06-26T13:03:58;3.90;;;2.60;;
11113;SDS011;5610;52.154;9.198;2023-06-26T13:06:44;3.07;;;2.47;;
11113;SDS011;5610;52.154;9.198;2023-06-26T13:09:33;3.37;;;2.47;;
11113;SDS011;5610;52.154;9.198;2023-06-26T13:12:18;2.60;;;2.40;;
11113;SDS011;5610;52.154;9.198;2023-06-26T13:15:04;3.87;;;2.70;;
11113;SDS011;5610;52.154;9.198;2023-06-26T13:17:49;3.50;;;3.20;;
11113;SDS011;5610;52.154;9.198;2023-06-26T13:20:34;4.83;;;2.30;;
11113;SDS011;5610;52.154;9.198;2023-06-26T13:23:20;3.40;;;2.60;;
11113;SDS011;5610;52.154;9.198;2023-06-26T13:26:06;4.73;;;2.47;;
11113;SDS011;5610;52.154;9.198;2023-06-26T13:28:52;3.97;;;2.90;;
11113;SDS011;5610;52.154;9.198;2023-06-26T13:31:37;3.87;;;2.60;;
11113;SDS011;5610;52.154;9.198;2023-06-26T13:34:23;3.10;;;2.33;;
11113;SDS011;5610;52.154;9.198;2023-06-26T13:37:11;3.00;;;2.70;;
11113;SDS011;5610;52.154;9.198;2023-06-26T13:39:56;4.07;;;2.70;;
11113;SDS011;5610;52.154;9.198;2023-06-26T13:42:44;5.10;;;3.03;;
11113;SDS011;5610;52.154;9.198;2023-06-26T13:45:30;3.73;;;3.00;;
11113;SDS011;5610;52.154;9.198;2023-06-26T13:48:15;4.40;;;2.33;;
11113;SDS011;5610;52.154;9.198;2023-06-26T13:51:00;3.00;;;2.40;;
11113;SDS011;5610;52.154;9.198;2023-06-26T13:53:45;3.83;;;2.87;;
11113;SDS011;5610;52.154;9.198;2023-06-26T13:56:30;4.27;;;2.87;;
11113;SDS011;5610;52.154;9.198;2023-06-26T13:59:18;5.80;;;2.80;;
11113;SDS011;5610;52.154;9.198;2023-06-26T14:02:04;2.33;;;2.13;;
11113;SDS011;5610;52.154;9.198;2023-06-26T14:04:50;3.00;;;2.60;;
11113;SDS011;5610;52.154;9.198;2023-06-26T14:07:35;4.90;;;2.87;;
11113;SDS011;5610;52.154;9.198;2023-06-26T14:10:21;4.03;;;3.00;;
11113;SDS011;5610;52.154;9.198;2023-06-26T14:13:06;3.53;;;2.77;;
11113;SDS011;5610;52.154;9.198;2023-06-26T14:15:53;3.13;;;2.70;;
11113;SDS011;5610;52.154;9.198;2023-06-26T14:18:39;3.70;;;2.80;;
11113;SDS011;5610;52.154;9.198;2023-06-26T14:21:24;5.33;;;3.00;;
11113;SDS011;5610;52.154;9.198;2023-06-26T14:24:11;4.13;;;2.90;;
11113;SDS011;5610;52.154;9.198;2023-06-26T14:26:56;6.57;;;2.70;;
11113;SDS011;5610;52.154;9.198;2023-06-26T14:29:41;3.03;;;2.73;;
11113;SDS011;5610;52.154;9.198;2023-06-26T14:32:27;3.47;;;2.90;;
11113;SDS011;5610;52.154;9.198;2023-06-26T14:35:13;3.53;;;2.53;;
11113;SDS011;5610;52.154;9.198;2023-06-26T14:37:58;5.70;;;2.80;;
11113;SDS011;5610;52.154;9.198;2023-06-26T14:40:43;3.90;;;2.50;;
11113;SDS011;5610;52.154;9.198;2023-06-26T14:43:28;4.97;;;3.43;;
11113;SDS011;5610;52.154;9.198;2023-06-26T14:46:13;2.90;;;2.60;;
11113;SDS011;5610;52.154;9.198;2023-06-26T14:48:59;2.93;;;2.40;;
11113;SDS011;5610;52.154;9.198;2023-06-26T14:51:44;5.93;;;3.13;;
11113;SDS011;5610;52.154;9.198;2023-06-26T14:54:29;7.03;;;3.37;;
11113;SDS011;5610;52.154;9.198;2023-06-26T14:57:16;6.20;;;3.07;;
11113;SDS011;5610;52.154;9.198;2023-06-26T15:00:01;6.60;;;3.00;;
11113;SDS011;5610;52.154;9.198;2023-06-26T15:02:47;4.50;;;3.40;;
11113;SDS011;5610;52.154;9.198;2023-06-26T15:05:33;3.83;;;3.10;;
11113;SDS011;5610;52.154;9.198;2023-06-26T15:08:19;8.17;;;3.60;;
11113;SDS011;5610;52.154;9.198;2023-06-26T15:11:04;4.40;;;3.40;;
11113;SDS011;5610;52.154;9.198;2023-06-26T15:13:50;6.63;;;3.20;;
11113;SDS011;5610;52.154;9.198;2023-06-26T15:16:35;6.73;;;3.17;;
11113;SDS011;5610;52.154;9.198;2023-06-26T15:19:20;3.60;;;2.60;;
11113;SDS011;5610;52.154;9.198;2023-06-26T15:22:07;4.93;;;3.10;;
11113;SDS011;5610;52.154;9.198;2023-06-26T15:24:52;3.93;;;2.83;;
11113;SDS011;5610;52.154;9.198;2023-06-26T15:27:38;4.87;;;3.00;;
11113;SDS011;5610;52.154;9.198;2023-06-26T15:30:23;5.50;;;2.77;;
11113;SDS011;5610;52.154;9.198;2023-06-26T15:33:08;3.57;;;2.20;;
11113;SDS011;5610;52.154;9.198;2023-06-26T15:35:53;6.03;;;2.80;;
11113;SDS011;5610;52.154;9.198;2023-06-26T15:38:39;4.10;;;2.57;;
11113;SDS011;5610;52.154;9.198;2023-06-26T15:41:25;3.10;;;2.43;;
11113;SDS011;5610;52.154;9.198;2023-06-26T15:44:10;3.00;;;2.23;;
11113;SDS011;5610;52.154;9.198;2023-06-26T15:46:55;3.27;;;2.43;;
11113;SDS011;5610;52.154;9.198;2023-06-26T15:49:40;7.10;;;2.50;;
11113;SDS011;5610;52.154;9.198;2023-06-26T15:52:26;3.43;;;2.20;;
11113;SDS011;5610;52.154;9.198;2023-06-26T15:55:12;3.97;;;2.13;;
11113;SDS011;5610;52.154;9.198;2023-06-26T15:57:57;3.07;;;2.30;;
11113;SDS011;5610;52.154;9.198;2023-06-26T16:00:43;4.23;;;2.60;;
11113;SDS011;5610;52.154;9.198;2023-06-26T16:03:28;4.10;;;2.20;;
11113;SDS011;5610;52.154;9.198;2023-06-26T16:06:14;5.13;;;2.37;;
11113;SDS011;5610;52.154;9.198;2023-06-26T16:08:59;5.23;;;2.13;;
11113;SDS011;5610;52.154;9.198;2023-06-26T16:11:45;4.30;;;2.40;;
11113;SDS011;5610;52.154;9.198;2023-06-26T16:14:31;5.73;;;2.40;;
11113;SDS011;5610;52.154;9.198;2023-06-26T16:17:16;4.70;;;2.23;;
11113;SDS011;5610;52.154;9.198;2023-06-26T16:20:01;6.10;;;2.53;;
11113;SDS011;5610;52.154;9.198;2023-06-26T16:22:46;6.63;;;2.13;;
11113;SDS011;5610;52.154;9.198;2023-06-26T16:25:32;2.93;;;2.63;;
11113;SDS011;5610;52.154;9.198;2023-06-26T16:28:19;3.23;;;2.30;;
11113;SDS011;5610;52.154;9.198;2023-06-26T16:31:04;3.30;;;2.13;;
11113;SDS011;5610;52.154;9.198;2023-06-26T16:33:49;2.97;;;2.30;;
11113;SDS011;5610;52.154;9.198;2023-06-26T16:36:35;6.83;;;1.97;;
11113;SDS011;5610;52.154;9.198;2023-06-26T16:39:20;2.43;;;2.00;;
11113;SDS011;5610;52.154;9.198;2023-06-26T16:42:08;5.40;;;2.10;;
11113;SDS011;5610;52.154;9.198;2023-06-26T16:44:54;3.57;;;1.80;;
11113;SDS011;5610;52.154;9.198;2023-06-26T16:47:40;2.90;;;1.93;;
11113;SDS011;5610;52.154;9.198;2023-06-26T16:50:26;3.70;;;2.03;;